createdAt,value
2019-01-15T00:00:23.365Z,2.84
2019-01-15T00:03:27.638Z,2.75
2019-01-15T00:06:31.889Z,2.68
2019-01-15T00:09:36.209Z,2.83
2019-01-15T00:12:40.502Z,2.68
2019-01-15T00:15:44.778Z,2.89
2019-01-15T00:18:49.181Z,2.86
2019-01-15T00:21:53.512Z,2.66
2019-01-15T00:24:57.880Z,2.61
2019-01-15T00:28:02.184Z,2.52
2019-01-15T00:31:06.427Z,2.44
2019-01-15T00:34:10.795Z,2.34
2019-01-15T00:37:15.181Z,2.25
2019-01-15T00:40:19.633Z,2.26
2019-01-15T00:43:24.001Z,2.16
2019-01-15T00:46:28.252Z,1.94
2019-01-15T00:49:32.581Z,1.97
2019-01-15T00:52:36.872Z,1.85
2019-01-15T00:55:41.166Z,1.88
2019-01-15T00:58:45.401Z,1.84
2019-01-15T01:01:49.857Z,1.97
2019-01-15T01:04:54.200Z,1.97
2019-01-15T01:07:58.458Z,1.87
2019-01-15T01:11:02.775Z,1.88
2019-01-15T01:14:07.558Z,1.97
2019-01-15T01:17:11.887Z,1.96
2019-01-15T01:20:19.080Z,1.98
2019-01-15T01:23:23.437Z,2.11
2019-01-15T01:26:27.770Z,2.09
2019-01-15T01:29:32.082Z,2.07
2019-01-15T01:32:36.462Z,2.26
2019-01-15T01:35:40.787Z,2.21
2019-01-15T01:38:45.080Z,2.13
2019-01-15T01:41:49.422Z,2.24
2019-01-15T01:44:53.682Z,2.20
2019-01-15T01:47:58.029Z,2.20
2019-01-15T01:51:02.356Z,2.10
2019-01-15T01:54:06.645Z,2.09
2019-01-15T01:57:10.996Z,2.10
2019-01-15T02:00:19.907Z,2.03
2019-01-15T02:03:24.262Z,1.98
2019-01-15T02:06:28.586Z,2.01
2019-01-15T02:09:32.942Z,2.02
2019-01-15T02:12:37.376Z,2.03
2019-01-15T02:15:41.645Z,2.00
2019-01-15T02:18:45.930Z,2.01
2019-01-15T02:21:50.252Z,1.97
2019-01-15T02:24:54.545Z,2.07
2019-01-15T02:27:58.922Z,2.01
2019-01-15T02:31:03.220Z,2.11
2019-01-15T02:34:07.567Z,2.03
2019-01-15T02:37:11.902Z,1.98
2019-01-15T02:40:16.362Z,1.98
2019-01-15T02:43:20.678Z,1.98
2019-01-15T02:46:25.126Z,1.99
2019-01-15T02:49:29.782Z,1.99
2019-01-15T02:52:34.075Z,2.01
2019-01-15T02:55:38.370Z,2.02
2019-01-15T02:58:42.616Z,1.94
2019-01-15T03:01:46.900Z,1.96
2019-01-15T03:04:51.185Z,1.98
2019-01-15T03:07:55.429Z,1.96
2019-01-15T03:10:59.717Z,1.92
2019-01-15T03:14:04.127Z,1.94
2019-01-15T03:17:08.410Z,1.91
2019-01-15T03:20:13.195Z,1.91
2019-01-15T03:23:17.451Z,1.92
2019-01-15T03:26:21.750Z,1.95
2019-01-15T03:29:26.005Z,1.95
2019-01-15T03:32:30.330Z,2.01
2019-01-15T03:35:34.690Z,1.97
2019-01-15T03:38:38.990Z,1.99
2019-01-15T03:41:43.306Z,1.97
2019-01-15T03:44:47.619Z,1.99
2019-01-15T03:47:52.005Z,1.96
2019-01-15T03:50:56.277Z,1.93
2019-01-15T03:54:00.528Z,1.94
2019-01-15T03:57:04.886Z,1.91
2019-01-15T04:00:13.420Z,1.96
2019-01-15T04:03:17.849Z,1.93
2019-01-15T04:06:22.145Z,1.93
2019-01-15T04:09:26.564Z,1.93
2019-01-15T04:12:31.027Z,2.01
2019-01-15T04:15:35.351Z,1.84
2019-01-15T04:18:39.785Z,1.80
2019-01-15T04:21:44.119Z,1.96
2019-01-15T04:24:48.396Z,1.96
2019-01-15T04:27:52.701Z,1.87
2019-01-15T04:30:57.000Z,1.97
2019-01-15T04:34:01.461Z,1.90
2019-01-15T04:37:06.027Z,1.95
2019-01-15T04:40:13.162Z,1.96
2019-01-15T04:43:19.926Z,1.95
2019-01-15T04:46:23.489Z,1.93
2019-01-15T04:49:27.966Z,1.97
2019-01-15T04:52:32.460Z,1.92
2019-01-15T04:55:36.824Z,1.91
2019-01-15T04:58:43.854Z,2.01
2019-01-15T05:01:48.285Z,2.01
2019-01-15T05:04:52.636Z,2.00
2019-01-15T05:07:56.937Z,2.00
2019-01-15T05:11:01.309Z,2.02
2019-01-15T05:14:05.696Z,2.01
2019-01-15T05:17:09.968Z,2.06
2019-01-15T05:20:16.124Z,2.15
2019-01-15T05:23:20.565Z,2.17
2019-01-15T05:26:24.817Z,2.13
2019-01-15T05:29:29.183Z,2.16
2019-01-15T05:32:33.442Z,2.21
2019-01-15T05:35:37.773Z,2.26
2019-01-15T05:38:42.140Z,2.22
2019-01-15T05:41:46.444Z,2.26
2019-01-15T05:44:50.939Z,2.28
2019-01-15T05:47:56.259Z,2.34
2019-01-15T05:51:17.627Z,2.30
2019-01-15T05:54:21.900Z,2.37
2019-01-15T05:57:26.188Z,2.39
2019-01-15T06:00:30.448Z,2.40
2019-01-15T06:03:34.745Z,2.37
2019-01-15T06:06:39.065Z,2.41
2019-01-15T06:09:43.338Z,2.38
2019-01-15T06:12:47.590Z,2.38
2019-01-15T06:15:51.907Z,2.44
2019-01-15T06:18:56.185Z,2.41
2019-01-15T06:22:00.522Z,2.44
2019-01-15T06:25:05.688Z,2.47
2019-01-15T06:28:10.071Z,2.46
2019-01-15T06:31:15.164Z,2.50
2019-01-15T06:34:19.649Z,2.52
2019-01-15T06:37:24.014Z,2.57
2019-01-15T06:40:28.414Z,2.60
2019-01-15T06:43:32.736Z,2.60
2019-01-15T06:46:37.027Z,2.65
2019-01-15T06:49:41.402Z,2.69
2019-01-15T06:52:45.788Z,2.68
2019-01-15T06:55:50.073Z,2.68
2019-01-15T06:58:54.384Z,2.76
2019-01-15T07:01:59.879Z,2.72
2019-01-15T07:05:04.374Z,2.75
2019-01-15T07:08:08.656Z,2.78
2019-01-15T07:11:13.015Z,2.80
2019-01-15T07:14:17.335Z,2.79
2019-01-15T07:17:21.651Z,2.78
2019-01-15T07:20:25.915Z,2.81
2019-01-15T07:23:30.248Z,2.85
2019-01-15T07:26:34.531Z,2.82
2019-01-15T07:29:38.850Z,2.84
2019-01-15T07:32:43.165Z,2.88
2019-01-15T07:35:47.474Z,2.88
2019-01-15T07:38:51.825Z,2.95
2019-01-15T07:41:56.119Z,2.98
2019-01-15T07:45:00.412Z,3.04
2019-01-15T07:48:04.716Z,3.04
2019-01-15T07:51:09.000Z,3.03
2019-01-15T07:54:13.345Z,3.14
2019-01-15T07:57:17.690Z,3.16
2019-01-15T08:00:22.146Z,3.24
2019-01-15T08:03:26.694Z,3.18
2019-01-15T08:06:31.039Z,3.23
2019-01-15T08:09:35.348Z,3.25
2019-01-15T08:12:39.715Z,3.27
2019-01-15T08:15:44.074Z,3.24
2019-01-15T08:18:48.350Z,3.31
2019-01-15T08:21:52.665Z,3.35
2019-01-15T08:24:56.958Z,3.40
2019-01-15T08:28:01.376Z,3.41
2019-01-15T08:31:05.733Z,3.55
2019-01-15T08:34:10.033Z,3.50
2019-01-15T08:37:14.419Z,3.53
2019-01-15T08:40:18.812Z,3.57
2019-01-15T08:43:23.134Z,3.67
2019-01-15T08:46:27.448Z,3.65
2019-01-15T08:49:31.772Z,3.73
2019-01-15T08:52:36.053Z,3.70
2019-01-15T08:55:40.381Z,3.71
2019-01-15T08:58:44.682Z,3.75
2019-01-15T09:01:49.010Z,3.86
2019-01-15T09:04:53.389Z,3.85
2019-01-15T09:07:57.776Z,3.97
2019-01-15T09:11:02.101Z,3.97
2019-01-15T09:14:06.644Z,4.00
2019-01-15T09:17:11.285Z,4.02
2019-01-15T09:20:17.560Z,4.10
2019-01-15T09:23:21.969Z,3.98
2019-01-15T09:26:26.419Z,4.03
2019-01-15T09:29:30.754Z,4.04
2019-01-15T09:32:35.084Z,4.20
2019-01-15T09:35:39.438Z,4.16
2019-01-15T09:38:43.773Z,4.24
2019-01-15T09:41:48.154Z,4.13
2019-01-15T09:44:52.492Z,4.19
2019-01-15T09:48:15.455Z,4.39
2019-01-15T09:51:19.788Z,4.30
2019-01-15T09:54:24.130Z,4.42
2019-01-15T09:57:28.445Z,4.49
2019-01-15T10:00:32.994Z,4.47
2019-01-15T10:03:37.484Z,4.52
2019-01-15T10:06:42.145Z,4.67
2019-01-15T10:09:46.834Z,4.57
2019-01-15T10:12:51.243Z,4.76
2019-01-15T10:15:55.595Z,4.89
2019-01-15T10:18:59.902Z,4.80
2019-01-15T10:22:04.898Z,4.82
2019-01-15T10:25:10.960Z,4.87
2019-01-15T10:28:15.477Z,4.95
2019-01-15T10:32:01.973Z,5.00
2019-01-15T10:35:24.274Z,4.87
2019-01-15T10:38:30.438Z,4.98
2019-01-15T10:41:34.869Z,4.97
2019-01-15T10:44:39.171Z,4.94
2019-01-15T10:47:46.145Z,5.10
2019-01-15T10:50:50.556Z,5.11
2019-01-15T10:53:54.873Z,5.21
2019-01-15T10:56:59.254Z,5.22
2019-01-15T11:00:04.760Z,5.22
2019-01-15T11:03:09.172Z,5.22
2019-01-15T11:06:13.650Z,5.34
2019-01-15T11:09:18.030Z,5.13
2019-01-15T11:12:22.341Z,5.19
2019-01-15T11:15:26.641Z,5.32
2019-01-15T11:18:31.075Z,5.30
2019-01-15T11:21:35.368Z,5.17
2019-01-15T11:24:39.744Z,5.15
2019-01-15T11:27:44.049Z,5.07
2019-01-15T11:30:48.339Z,5.10
2019-01-15T11:33:53.231Z,5.16
2019-01-15T11:36:57.517Z,5.09
2019-01-15T11:40:01.983Z,5.10
2019-01-15T11:43:06.363Z,5.24
2019-01-15T11:46:10.810Z,5.16
2019-01-15T11:49:15.197Z,5.12
2019-01-15T11:52:22.534Z,5.18
2019-01-15T11:55:26.967Z,5.23
2019-01-15T11:58:31.277Z,5.35
2019-01-15T12:01:44.624Z,5.33
2019-01-15T12:05:07.869Z,5.31
2019-01-15T12:08:31.369Z,5.33
2019-01-15T12:11:55.742Z,5.52
2019-01-15T12:15:34.003Z,5.57
2019-01-15T12:18:57.249Z,5.63
2019-01-15T12:22:35.669Z,5.75
2019-01-15T12:25:47.043Z,5.80
2019-01-15T12:29:13.349Z,5.78
2019-01-15T12:32:51.797Z,5.85
2019-01-15T12:36:19.442Z,5.92
2019-01-15T12:39:48.102Z,5.91
2019-01-15T12:43:17.264Z,5.90
2019-01-15T12:46:38.899Z,5.83
2019-01-15T12:50:00.883Z,5.82
2019-01-15T12:53:24.037Z,5.79
2019-01-15T12:56:42.369Z,5.86
2019-01-15T13:00:04.214Z,5.72
2019-01-15T13:03:33.319Z,5.75
2019-01-15T13:07:02.714Z,5.82
2019-01-15T13:10:27.178Z,5.72
2019-01-15T13:13:53.532Z,5.95
2019-01-15T13:17:25.925Z,6.05
2019-01-15T13:20:49.925Z,5.96
2019-01-15T13:24:11.392Z,6.02
2019-01-15T13:27:37.377Z,5.96
2019-01-15T13:30:55.797Z,6.01
2019-01-15T13:34:30.843Z,6.01
2019-01-15T13:37:54.097Z,6.05
2019-01-15T13:41:22.644Z,5.99
2019-01-15T13:44:45.915Z,5.94
2019-01-15T13:48:07.561Z,6.00
2019-01-15T13:51:29.562Z,6.21
2019-01-15T13:55:02.152Z,6.21
2019-01-15T13:58:40.374Z,6.09
2019-01-15T14:02:05.276Z,6.17
2019-01-15T14:05:27.069Z,6.06
2019-01-15T14:08:46.984Z,6.09
2019-01-15T14:12:12.937Z,5.99
2019-01-15T14:15:39.059Z,6.08
2019-01-15T14:19:12.122Z,6.00
2019-01-15T14:22:33.663Z,6.05
2019-01-15T14:26:12.047Z,6.09
2019-01-15T14:29:33.220Z,6.00
2019-01-15T14:32:55.869Z,6.04
2019-01-15T14:36:16.647Z,5.95
2019-01-15T14:39:41.162Z,6.00
2019-01-15T14:43:07.581Z,6.02
2019-01-15T14:46:39.953Z,6.09
2019-01-15T14:50:01.890Z,6.17
2019-01-15T14:53:37.528Z,6.08
2019-01-15T14:57:15.615Z,6.05
2019-01-15T15:00:38.286Z,6.07
2019-01-15T15:04:10.419Z,6.13
2019-01-15T15:07:42.454Z,6.09
2019-01-15T15:11:04.119Z,6.09
2019-01-15T15:14:27.777Z,6.15
2019-01-15T15:17:57.253Z,6.15
2019-01-15T15:21:20.522Z,6.11
2019-01-15T15:24:43.734Z,6.11
2019-01-15T15:28:01.776Z,6.08
2019-01-15T15:31:27.849Z,6.10
2019-01-15T15:34:46.899Z,6.16
2019-01-15T15:38:05.624Z,6.15
2019-01-15T15:41:23.024Z,6.13
2019-01-15T15:45:01.249Z,6.10
2019-01-15T15:48:18.886Z,6.06
2019-01-15T15:52:00.298Z,6.12
2019-01-15T15:55:26.702Z,6.13
2019-01-15T15:58:45.363Z,6.16
2019-01-15T16:02:26.801Z,6.12
2019-01-15T16:05:48.303Z,6.11
2019-01-15T16:09:12.852Z,6.16
2019-01-15T16:12:30.449Z,6.15
2019-01-15T16:16:00.228Z,6.19
2019-01-15T16:19:25.269Z,6.12
2019-01-15T16:22:54.396Z,6.15
2019-01-15T16:26:29.576Z,6.15
2019-01-15T16:29:52.853Z,6.08
2019-01-15T16:33:16.178Z,6.05
2019-01-15T16:36:44.911Z,6.06
2019-01-15T16:40:23.364Z,6.05
2019-01-15T16:43:49.542Z,6.11
2019-01-15T16:47:15.993Z,6.09
2019-01-15T16:50:39.297Z,6.07
2019-01-15T16:54:02.569Z,5.99
2019-01-15T16:57:40.638Z,6.05
2019-01-15T17:01:02.513Z,6.07
2019-01-15T17:04:17.343Z,6.07
2019-01-15T17:07:39.272Z,6.01
2019-01-15T17:11:00.919Z,5.96
2019-01-15T17:14:20.262Z,6.00
2019-01-15T17:17:42.313Z,5.96
2019-01-15T17:21:04.298Z,5.97
2019-01-15T17:24:22.112Z,5.93
2019-01-15T17:27:48.408Z,5.89
2019-01-15T17:31:17.546Z,5.91
2019-01-15T17:34:50.383Z,5.89
2019-01-15T17:38:16.750Z,5.86
2019-01-15T17:41:40.083Z,5.87
2019-01-15T17:44:54.692Z,5.90
2019-01-15T17:48:21.462Z,5.97
2019-01-15T17:51:40.461Z,5.95
2019-01-15T17:54:53.857Z,5.96
2019-01-15T17:58:20.127Z,5.99
2019-01-15T18:01:47.563Z,5.99
2019-01-15T18:05:17.491Z,6.00
2019-01-15T18:08:49.603Z,6.06
2019-01-15T18:12:12.974Z,6.04
2019-01-15T18:15:44.399Z,6.08
2019-01-15T18:19:07.701Z,6.01
2019-01-15T18:22:28.176Z,6.04
2019-01-15T18:25:48.468Z,6.04
2019-01-15T18:29:20.123Z,5.93
2019-01-15T18:32:49.425Z,5.95
2019-01-15T18:36:11.099Z,5.85
2019-01-15T18:39:35.997Z,5.83
2019-01-15T18:42:57.678Z,5.82
2019-01-15T18:46:29.360Z,5.79
2019-01-15T18:49:53.223Z,5.86
2019-01-15T18:53:12.307Z,5.83
2019-01-15T18:56:52.144Z,5.78
2019-01-15T19:00:15.420Z,5.77
2019-01-15T19:03:41.863Z,5.71
2019-01-15T19:07:13.342Z,5.69
2019-01-15T19:10:34.312Z,5.70
2019-01-15T19:13:55.965Z,5.72
2019-01-15T19:17:36.411Z,5.67
2019-01-15T19:21:05.460Z,5.75
2019-01-15T19:24:33.404Z,5.84
2019-01-15T19:27:59.430Z,5.86
2019-01-15T19:31:21.189Z,5.86
2019-01-15T19:34:36.998Z,5.90
2019-01-15T19:37:58.682Z,5.82
2019-01-15T19:41:30.007Z,5.81
2019-01-15T19:44:53.236Z,5.79
2019-01-15T19:48:22.597Z,5.82
2019-01-15T19:51:48.493Z,5.83
2019-01-15T19:55:10.186Z,5.78
2019-01-15T19:58:31.791Z,5.70
2019-01-15T20:01:57.841Z,5.71
2019-01-15T20:05:15.839Z,5.70
2019-01-15T20:08:51.085Z,5.71
2019-01-15T20:12:14.438Z,5.67
2019-01-15T20:15:38.169Z,5.66
2019-01-15T20:18:58.862Z,5.67
2019-01-15T20:22:22.300Z,5.71
2019-01-15T20:25:48.592Z,5.75
2019-01-15T20:29:26.763Z,5.81
2019-01-15T20:32:48.602Z,5.76
2019-01-15T20:36:20.897Z,5.84
2019-01-15T20:39:53.157Z,5.84
2019-01-15T20:43:14.842Z,5.80
2019-01-15T20:46:40.898Z,5.78
2019-01-15T20:50:02.502Z,5.72
2019-01-15T20:53:37.861Z,5.69
2019-01-15T20:57:19.012Z,5.77
2019-01-15T21:00:54.396Z,5.68
2019-01-15T21:04:20.647Z,5.67
2019-01-15T21:07:42.404Z,5.65
2019-01-15T21:11:11.631Z,5.65
2019-01-15T21:14:39.392Z,5.67
2019-01-15T21:18:10.662Z,5.62
2019-01-15T21:21:34.567Z,5.66
2019-01-15T21:24:51.283Z,5.68
2019-01-15T21:28:05.927Z,5.72
2019-01-15T21:31:21.268Z,5.67
2019-01-15T21:34:59.773Z,5.76
2019-01-15T21:38:17.986Z,5.71
2019-01-15T21:41:38.367Z,5.75
2019-01-15T21:45:04.610Z,5.74
2019-01-15T21:48:43.017Z,5.83
2019-01-15T21:52:21.356Z,5.75
2019-01-15T21:55:56.910Z,5.80
2019-01-15T21:59:22.876Z,5.81
2019-01-15T22:02:52.222Z,5.79
2019-01-15T22:06:21.533Z,5.79
2019-01-15T22:09:53.663Z,5.84
2019-01-15T22:13:19.706Z,5.86
2019-01-15T22:16:50.407Z,5.91
2019-01-15T22:20:12.006Z,5.83
2019-01-15T22:23:33.565Z,5.81
2019-01-15T22:26:55.560Z,5.82
2019-01-15T22:30:30.651Z,5.83
2019-01-15T22:33:46.381Z,5.82
2019-01-15T22:37:18.603Z,5.72
2019-01-15T22:40:34.607Z,5.79
2019-01-15T22:43:50.500Z,5.67
2019-01-15T22:47:22.851Z,5.71
2019-01-15T22:50:49.156Z,5.65
2019-01-15T22:54:03.059Z,5.61
2019-01-15T22:57:22.161Z,5.59
2019-01-15T23:00:55.303Z,5.62
2019-01-15T23:04:24.422Z,5.59
2019-01-15T23:07:53.810Z,5.62
2019-01-15T23:11:33.274Z,5.64
2019-01-15T23:14:59.837Z,5.68
2019-01-15T23:18:33.060Z,5.69
2019-01-15T23:21:54.742Z,5.68
2019-01-15T23:25:23.825Z,5.78
2019-01-15T23:28:46.985Z,5.80
2019-01-15T23:32:00.520Z,5.79
2019-01-15T23:35:39.890Z,5.78
2019-01-15T23:39:06.261Z,5.82
2019-01-15T23:42:28.167Z,5.84
2019-01-15T23:45:50.315Z,5.84
2019-01-15T23:49:16.906Z,5.87
2019-01-15T23:52:38.473Z,5.92
2019-01-15T23:56:18.633Z,5.90
2019-01-15T23:59:43.027Z,5.93
